Wetterdaten: Woche 31.05.21 - 06.06.21 (KW22)
Datum Zeit Temp. Aussen Temp. o. S. Temp +5cm Feuchte Auss Luftdruck Regen Sonnenschein Regendauer Solar Windben Empfang
31.05.2021 00:00 14,8 C 13,8 C 11,2 C 72 % 1024,4 hPa 0,0 l/m 0,00 h 0,00 h 0 W/m 0,2 km/h (0 Bft) 96,98 %
31.05.2021 01:00 14,2 C 12,8 C 10,7 C 75 % 1024,2 hPa 0,0 l/m 0,00 h 0,00 h 0 W/m 0,6 km/h (0 Bft) 98,31 %
31.05.2021 02:00 13,0 C 11,3 C 9,4 C 82 % 1024,0 hPa 0,0 l/m 0,00 h 0,00 h 0 W/m 0,0 km/h (0 Bft) 98,15 %
31.05.2021 03:00 11,8 C 10,4 C 8,7 C 86 % 1023,8 hPa 0,0 l/m 0,00 h 0,00 h 0 W/m 0,0 km/h (0 Bft) 99,29 %
31.05.2021 04:00 11,0 C 9,7 C 8,1 C 88 % 1023,6 hPa 0,0 l/m 0,00 h 0,00 h 0 W/m 0,0 km/h (0 Bft) 94,01 %
31.05.2021 05:00 10,3 C 9,1 C 7,7 C 90 % 1023,7 hPa 0,0 l/m 0,00 h 0,00 h 9 W/m 0,0 km/h (0 Bft) 94,66 %
31.05.2021 06:00 10,1 C 10,0 C 8,2 C 91 % 1023,7 hPa 0,0 l/m 0,00 h 0,00 h 23 W/m 0,0 km/h (0 Bft) 97,49 %
31.05.2021 07:00 11,8 C 12,5 C 10,3 C 92 % 1023,7 hPa 0,0 l/m 0,13 h 0,00 h 69 W/m 2,5 km/h (1 Bft) 98,50 %
31.05.2021 08:00 15,8 C 19,6 C 14,5 C 79 % 1023,6 hPa 0,0 l/m 1,00 h 0,00 h 401 W/m 4,5 km/h (1 Bft) 96,38 %
31.05.2021 09:00 20,2 C 25,9 C 20,4 C 64 % 1023,4 hPa 0,0 l/m 1,00 h 0,00 h 574 W/m 5,5 km/h (1 Bft) 98,43 %
31.05.2021 10:00 21,5 C 25,2 C 25,6 C 59 % 1023,1 hPa 0,0 l/m 1,00 h 0,00 h 724 W/m 7,0 km/h (2 Bft) 98,29 %
31.05.2021 11:00 22,6 C 26,5 C 24,1 C 56 % 1022,8 hPa 0,0 l/m 1,00 h 0,00 h 856 W/m 10,1 km/h (2 Bft) 98,79 %
31.05.2021 12:00 24,0 C 26,8 C 28,8 C 52 % 1022,3 hPa 0,0 l/m 1,00 h 0,00 h 992 W/m 12,2 km/h (2 Bft) 97,64 %
31.05.2021 13:00 24,4 C 27,4 C 28,4 C 51 % 1021,8 hPa 0,0 l/m 0,87 h 0,00 h 888 W/m 12,8 km/h (3 Bft) 95,80 %
31.05.2021 14:00 25,0 C 28,1 C 22,4 C 49 % 1021,3 hPa 0,0 l/m 0,87 h 0,00 h 840 W/m 14,3 km/h (3 Bft) 99,64 %
31.05.2021 15:00 25,4 C 29,0 C 22,8 C 47 % 1020,9 hPa 0,0 l/m 1,00 h 0,00 h 863 W/m 15,8 km/h (3 Bft) 97,58 %
31.05.2021 16:00 25,9 C 31,7 C 23,5 C 44 % 1020,3 hPa 0,0 l/m 1,00 h 0,00 h 743 W/m 11,2 km/h (2 Bft) 96,16 %
31.05.2021 17:00 26,2 C 32,0 C 24,0 C 45 % 1019,7 hPa 0,0 l/m 1,00 h 0,00 h 601 W/m 11,5 km/h (2 Bft) 99,65 %
31.05.2021 18:00 25,9 C 31,6 C 23,8 C 48 % 1019,2 hPa 0,0 l/m 1,00 h 0,00 h 429 W/m 10,0 km/h (2 Bft) 97,98 %
31.05.2021 19:00 24,2 C 24,8 C 20,4 C 53 % 1018,9 hPa 0,0 l/m 0,83 h 0,00 h 227 W/m 9,9 km/h (2 Bft) 95,94 %
31.05.2021 20:00 21,6 C 21,1 C 17,9 C 60 % 1018,7 hPa 0,0 l/m 0,00 h 0,00 h 42 W/m 8,4 km/h (2 Bft) 97,44 %
31.05.2021 21:00 19,7 C 18,9 C 16,1 C 63 % 1019,0 hPa 0,0 l/m 0,00 h 0,00 h 13 W/m 3,9 km/h (1 Bft) 99,00 %
31.05.2021 22:00 18,6 C 17,4 C 14,8 C 61 % 1019,2 hPa 0,0 l/m 0,00 h 0,00 h 0 W/m 3,3 km/h (1 Bft) 97,67 %
31.05.2021 23:00 17,3 C 16,2 C 13,6 C 59 % 1019,1 hPa 0,0 l/m 0,00 h 0,00 h 0 W/m 4,2 km/h (1 Bft) 96,31 %
01.06.2021 00:00 15,9 C 14,6 C 12,3 C 65 % 1019,1 hPa 0,0 l/m 0,00 h 0,00 h 0 W/m 3,4 km/h (1 Bft) 95,01 %
01.06.2021 01:00 14,6 C 13,5 C 11,2 C 70 % 1019,2 hPa 0,0 l/m 0,00 h 0,00 h 0 W/m 2,2 km/h (1 Bft) 99,79 %
01.06.2021 02:00 13,6 C 12,2 C 10,2 C 75 % 1019,2 hPa 0,0 l/m 0,00 h 0,00 h 0 W/m 0,4 km/h (0 Bft) 98,22 %
01.06.2021 03:00 12,6 C 11,2 C 9,3 C 79 % 1019,2 hPa 0,0 l/m 0,00 h 0,00 h 0 W/m 0,0 km/h (0 Bft) 97,70 %
01.06.2021 04:00 11,6 C 10,4 C 8,6 C 83 % 1019,2 hPa 0,0 l/m 0,00 h 0,00 h 0 W/m 0,0 km/h (0 Bft) 95,69 %
01.06.2021 05:00 10,9 C 9,6 C 8,0 C 85 % 1019,0 hPa 0,0 l/m 0,00 h 0,00 h 9 W/m 0,0 km/h (0 Bft) 97,67 %
01.06.2021 06:00 10,6 C 10,4 C 8,5 C 87 % 1019,2 hPa 0,0 l/m 0,00 h 0,00 h 20 W/m 1,3 km/h (1 Bft) 94,82 %
01.06.2021 07:00 12,6 C 13,2 C 10,8 C 79 % 1019,1 hPa 0,0 l/m 0,10 h 0,00 h 70 W/m 4,6 km/h (1 Bft) 95,11 %
01.06.2021 08:00 16,6 C 19,8 C 15,1 C 69 % 1019,1 hPa 0,0 l/m 1,00 h 0,00 h 422 W/m 6,7 km/h (2 Bft) 97,17 %
01.06.2021 09:00 20,3 C 25,7 C 21,6 C 58 % 1018,9 hPa 0,0 l/m 1,00 h 0,00 h 596 W/m 8,4 km/h (2 Bft) 96,80 %
01.06.2021 10:00 22,4 C 25,8 C 26,5 C 53 % 1018,6 hPa 0,0 l/m 1,00 h 0,00 h 743 W/m 8,9 km/h (2 Bft) 95,89 %
01.06.2021 11:00 23,7 C 25,9 C 25,3 C 45 % 1018,1 hPa 0,0 l/m 1,00 h 0,00 h 859 W/m 13,5 km/h (3 Bft) 99,43 %
01.06.2021 12:00 25,0 C 26,6 C 32,1 C 43 % 1017,5 hPa 0,0 l/m 1,00 h 0,00 h 930 W/m 12,9 km/h (3 Bft) 98,12 %
01.06.2021 13:00 26,1 C 27,8 C 34,0 C 41 % 1017,0 hPa 0,0 l/m 1,00 h 0,00 h 957 W/m 13,1 km/h (3 Bft) 95,45 %
01.06.2021 14:00 27,1 C 29,6 C 25,0 C 40 % 1016,3 hPa 0,0 l/m 1,00 h 0,00 h 937 W/m 13,2 km/h (3 Bft) 96,37 %
01.06.2021 15:00 27,9 C 30,0 C 24,9 C 38 % 1015,6 hPa 0,0 l/m 1,00 h 0,00 h 869 W/m 14,2 km/h (3 Bft) 96,89 %
01.06.2021 16:00 28,3 C 33,1 C 25,4 C 37 % 1015,0 hPa 0,0 l/m 1,00 h 0,00 h 755 W/m 11,3 km/h (2 Bft) 96,00 %
01.06.2021 17:00 28,5 C 34,2 C 26,2 C 41 % 1014,6 hPa 0,0 l/m 1,00 h 0,00 h 605 W/m 12,6 km/h (3 Bft) 97,50 %
01.06.2021 18:00 27,8 C 33,7 C 25,8 C 44 % 1014,2 hPa 0,0 l/m 1,00 h 0,00 h 429 W/m 12,9 km/h (3 Bft) 98,93 %
01.06.2021 19:00 25,5 C 26,5 C 22,3 C 47 % 1014,1 hPa 0,0 l/m 0,83 h 0,00 h 230 W/m 11,7 km/h (2 Bft) 98,36 %
01.06.2021 20:00 23,5 C 22,8 C 20,1 C 52 % 1014,2 hPa 0,0 l/m 0,00 h 0,00 h 31 W/m 8,3 km/h (2 Bft) 94,74 %
01.06.2021 21:00 22,0 C 20,8 C 18,4 C 55 % 1014,5 hPa 0,0 l/m 0,00 h 0,00 h 11 W/m 4,1 km/h (1 Bft) 96,89 %
01.06.2021 22:00 20,6 C 18,9 C 16,6 C 58 % 1014,7 hPa 0,0 l/m 0,00 h 0,00 h 0 W/m 3,9 km/h (1 Bft) 98,08 %
01.06.2021 23:00 18,9 C 17,1 C 14,9 C 63 % 1014,8 hPa 0,0 l/m 0,00 h 0,00 h 0 W/m 2,9 km/h (1 Bft) 96,52 %
02.06.2021 00:00 17,5 C 16,1 C 13,8 C 67 % 1014,9 hPa 0,0 l/m 0,00 h 0,00 h 0 W/m 2,0 km/h (1 Bft) 97,26 %
02.06.2021 01:00 16,1 C 14,4 C 12,5 C 73 % 1015,0 hPa 0,0 l/m 0,00 h 0,00 h 0 W/m 0,0 km/h (0 Bft) 98,48 %
02.06.2021 02:00 14,7 C 13,3 C 11,4 C 79 % 1014,9 hPa 0,0 l/m 0,00 h 0,00 h 0 W/m 0,0 km/h (0 Bft) 97,22 %
02.06.2021 03:00 13,9 C 12,4 C 10,7 C 83 % 1014,7 hPa 0,0 l/m 0,00 h 0,00 h 0 W/m 0,0 km/h (0 Bft) 97,86 %
02.06.2021 04:00 13,0 C 12,0 C 10,1 C 85 % 1014,6 hPa 0,0 l/m 0,00 h 0,00 h 0 W/m 0,1 km/h (0 Bft) 99,08 %
02.06.2021 05:00 12,5 C 11,7 C 9,6 C 86 % 1014,8 hPa 0,0 l/m 0,00 h 0,00 h 9 W/m 0,9 km/h (0 Bft) 98,87 %
02.06.2021 06:00 12,5 C 12,3 C 10,3 C 87 % 1014,9 hPa 0,0 l/m 0,00 h 0,00 h 23 W/m 0,6 km/h (0 Bft) 95,40 %
02.06.2021 07:00 13,9 C 14,7 C 12,4 C 83 % 1014,9 hPa 0,0 l/m 0,17 h 0,00 h 81 W/m 5,3 km/h (1 Bft) 96,30 %
02.06.2021 08:00 18,1 C 20,7 C 16,5 C 69 % 1015,0 hPa 0,0 l/m 1,00 h 0,00 h 400 W/m 7,8 km/h (2 Bft) 98,16 %
02.06.2021 09:00 21,7 C 26,8 C 23,1 C 60 % 1015,0 hPa 0,0 l/m 1,00 h 0,00 h 580 W/m 8,6 km/h (2 Bft) 98,07 %
02.06.2021 10:00 23,9 C 26,4 C 28,3 C 54 % 1014,9 hPa 0,0 l/m 1,00 h 0,00 h 707 W/m 10,4 km/h (2 Bft) 96,51 %
02.06.2021 11:00 26,1 C 28,6 C 27,3 C 49 % 1014,8 hPa 0,0 l/m 1,00 h 0,00 h 844 W/m 10,5 km/h (2 Bft) 98,01 %
02.06.2021 12:00 27,4 C 28,3 C 34,7 C 40 % 1014,7 hPa 0,0 l/m 1,00 h 0,00 h 923 W/m 17,0 km/h (3 Bft) 98,51 %
02.06.2021 13:00 28,3 C 29,3 C 37,2 C 38 % 1014,6 hPa 0,0 l/m 1,00 h 0,00 h 948 W/m 17,6 km/h (3 Bft) 97,01 %
02.06.2021 14:00 29,1 C 30,9 C 27,0 C 37 % 1014,5 hPa 0,0 l/m 1,00 h 0,00 h 937 W/m 18,1 km/h (3 Bft) 97,22 %
02.06.2021 15:00 29,5 C 31,3 C 26,5 C 35 % 1014,3 hPa 0,0 l/m 1,00 h 0,00 h 875 W/m 17,6 km/h (3 Bft) 99,72 %
02.06.2021 16:00 29,9 C 34,2 C 27,0 C 34 % 1014,0 hPa 0,0 l/m 1,00 h 0,00 h 759 W/m 13,7 km/h (3 Bft) 97,15 %
02.06.2021 17:00 30,6 C 35,1 C 27,3 C 35 % 1013,8 hPa 0,0 l/m 1,00 h 0,00 h 607 W/m 11,2 km/h (2 Bft) 95,80 %
02.06.2021 18:00 30,4 C 34,9 C 27,0 C 36 % 1013,6 hPa 0,0 l/m 1,00 h 0,00 h 433 W/m 11,9 km/h (2 Bft) 99,74 %
02.06.2021 19:00 29,7 C 29,3 C 25,5 C 38 % 1013,7 hPa 0,0 l/m 0,87 h 0,00 h 231 W/m 7,6 km/h (2 Bft) 98,36 %
02.06.2021 20:00 27,4 C 26,1 C 23,5 C 42 % 1014,1 hPa 0,0 l/m 0,00 h 0,00 h 41 W/m 7,3 km/h (2 Bft) 97,44 %
02.06.2021 21:00 25,8 C 24,5 C 22,2 C 45 % 1014,7 hPa 0,0 l/m 0,00 h 0,00 h 17 W/m 3,7 km/h (1 Bft) 97,01 %
02.06.2021 22:00 24,6 C 23,5 C 21,2 C 47 % 1015,5 hPa 0,0 l/m 0,00 h 0,00 h 0 W/m 7,6 km/h (2 Bft) 98,08 %
02.06.2021 23:00 23,4 C 22,0 C 19,8 C 56 % 1015,9 hPa 0,0 l/m 0,00 h 0,00 h 0 W/m 4,6 km/h (1 Bft) 98,72 %
03.06.2021 00:00 22,1 C 20,9 C 18,8 C 62 % 1016,4 hPa 0,0 l/m 0,00 h 0,00 h 0 W/m 5,4 km/h (1 Bft) 95,97 %
03.06.2021 01:00 21,0 C 19,7 C 17,7 C 69 % 1016,8 hPa 0,0 l/m 0,00 h 0,00 h 0 W/m 6,8 km/h (2 Bft) 98,51 %
03.06.2021 02:00 20,3 C 19,3 C 17,3 C 76 % 1016,8 hPa 0,0 l/m 0,00 h 0,00 h 0 W/m 6,5 km/h (2 Bft) 99,30 %
03.06.2021 03:00 19,8 C 18,6 C 16,5 C 78 % 1016,8 hPa 0,0 l/m 0,00 h 0,00 h 0 W/m 3,2 km/h (1 Bft) 95,93 %
03.06.2021 04:00 18,6 C 17,0 C 15,1 C 82 % 1017,0 hPa 0,0 l/m 0,00 h 0,00 h 0 W/m 1,4 km/h (1 Bft) 97,69 %
03.06.2021 05:00 17,8 C 17,0 C 15,0 C 83 % 1017,5 hPa 0,0 l/m 0,00 h 0,00 h 7 W/m 6,1 km/h (2 Bft) 98,22 %
03.06.2021 06:00 17,8 C 17,3 C 15,3 C 83 % 1017,9 hPa 0,0 l/m 0,00 h 0,00 h 47 W/m 6,9 km/h (2 Bft) 98,21 %
03.06.2021 07:00 18,6 C 18,4 C 16,2 C 82 % 1018,3 hPa 0,0 l/m 0,00 h 0,00 h 94 W/m 6,6 km/h (2 Bft) 98,00 %
03.06.2021 08:00 20,3 C 20,9 C 18,1 C 80 % 1018,9 hPa 0,0 l/m 0,30 h 0,07 h 229 W/m 6,7 km/h (2 Bft) 96,42 %
03.06.2021 09:00 21,9 C 22,7 C 20,1 C 78 % 1019,3 hPa 0,0 l/m 0,37 h 0,00 h 267 W/m 10,4 km/h (2 Bft) 97,47 %
03.06.2021 10:00 23,2 C 25,2 C 25,4 C 77 % 1019,5 hPa 0,0 l/m 0,80 h 0,00 h 681 W/m 14,7 km/h (3 Bft) 99,07 %
03.06.2021 11:00 24,3 C 24,4 C 22,9 C 76 % 1019,7 hPa 0,0 l/m 0,33 h 0,03 h 388 W/m 17,9 km/h (3 Bft) 96,02 %
03.06.2021 12:00 23,8 C 24,9 C 24,2 C 77 % 1019,8 hPa 0,0 l/m 0,80 h 0,17 h 565 W/m 15,1 km/h (3 Bft) 97,78 %
03.06.2021 13:00 25,3 C 27,0 C 29,0 C 71 % 1019,7 hPa 0,0 l/m 0,77 h 0,00 h 745 W/m 17,1 km/h (3 Bft) 99,86 %
03.06.2021 14:00 26,1 C 27,1 C 24,4 C 71 % 1019,4 hPa 0,0 l/m 0,67 h 0,00 h 614 W/m 16,1 km/h (3 Bft) 95,37 %
03.06.2021 15:00 23,8 C 22,2 C 19,9 C 82 % 1019,4 hPa 1,4 l/m 0,00 h 0,73 h 163 W/m 15,4 km/h (3 Bft) 98,02 %
03.06.2021 16:00 22,3 C 23,5 C 18,7 C 90 % 1019,1 hPa 0,0 l/m 0,23 h 0,07 h 356 W/m 7,5 km/h (2 Bft) 99,15 %
03.06.2021 17:00 24,4 C 27,2 C 19,5 C 83 % 1018,8 hPa 0,0 l/m 0,83 h 0,00 h 461 W/m 11,4 km/h (2 Bft) 97,09 %
03.06.2021 18:00 24,8 C 24,9 C 21,4 C 78 % 1018,8 hPa 0,0 l/m 0,30 h 0,00 h 169 W/m 10,7 km/h (2 Bft) 96,70 %
03.06.2021 19:00 24,0 C 23,7 C 21,1 C 82 % 1018,8 hPa 0,0 l/m 0,40 h 0,00 h 133 W/m 8,0 km/h (2 Bft) 98,43 %
03.06.2021 20:00 23,6 C 21,7 C 19,7 C 82 % 1019,2 hPa 6,0 l/m 0,23 h 0,30 h 59 W/m 5,7 km/h (1 Bft) 99,07 %
03.06.2021 21:00 22,3 C 20,4 C 18,5 C 93 % 1019,4 hPa 0,0 l/m 0,47 h 0,00 h 31 W/m 0,4 km/h (0 Bft) 95,59 %
03.06.2021 22:00 21,4 C 19,8 C 17,9 C 95 % 1019,9 hPa 0,0 l/m 0,00 h 0,00 h 0 W/m 0,0 km/h (0 Bft) 97,43 %
03.06.2021 23:00 20,7 C 19,0 C 17,5 C 96 % 1020,3 hPa 0,0 l/m 0,00 h 0,00 h 0 W/m 0,1 km/h (0 Bft) 99,08 %
04.06.2021 00:00 20,1 C 18,9 C 17,3 C 97 % 1020,3 hPa 0,0 l/m 0,00 h 0,00 h 0 W/m 0,6 km/h (0 Bft) 97,75 %
04.06.2021 01:00 19,8 C 18,5 C 17,3 C 98 % 1020,1 hPa 0,0 l/m 0,00 h 0,00 h 0 W/m 0,3 km/h (0 Bft) 97,51 %
04.06.2021 02:00 19,5 C 18,3 C 17,3 C 98 % 1020,0 hPa 0,0 l/m 0,00 h 0,00 h 0 W/m 0,0 km/h (0 Bft) 96,16 %
04.06.2021 03:00 19,3 C 18,1 C 17,2 C 99 % 1020,0 hPa 0,0 l/m 0,00 h 0,00 h 0 W/m 0,0 km/h (0 Bft) 96,59 %
04.06.2021 04:00 19,0 C 17,8 C 16,7 C 99 % 1020,1 hPa 0,0 l/m 0,00 h 0,00 h 0 W/m 0,4 km/h (0 Bft) 98,36 %
04.06.2021 05:00 18,6 C 17,2 C 16,7 C 99 % 1020,4 hPa 0,0 l/m 0,00 h 0,00 h 6 W/m 0,2 km/h (0 Bft) 98,29 %
04.06.2021 06:00 18,4 C 17,7 C 16,7 C 99 % 1020,6 hPa 0,0 l/m 0,00 h 0,00 h 34 W/m 0,0 km/h (0 Bft) 98,12 %
04.06.2021 07:00 18,6 C 18,6 C 17,1 C 100 % 1020,9 hPa 0,0 l/m 0,50 h 0,00 h 152 W/m 0,0 km/h (0 Bft) 98,79 %
04.06.2021 08:00 19,9 C 21,9 C 19,1 C 99 % 1021,1 hPa 0,0 l/m 0,97 h 0,00 h 303 W/m 4,6 km/h (1 Bft) 95,94 %
04.06.2021 09:00 22,4 C 26,3 C 22,8 C 90 % 1021,3 hPa 0,0 l/m 0,93 h 0,00 h 467 W/m 8,8 km/h (2 Bft) 96,22 %
04.06.2021 10:00 24,8 C 27,4 C 27,0 C 79 % 1021,3 hPa 0,0 l/m 1,00 h 0,00 h 643 W/m 7,1 km/h (2 Bft) 99,72 %
04.06.2021 11:00 26,1 C 29,1 C 26,4 C 72 % 1021,1 hPa 0,0 l/m 1,00 h 0,00 h 768 W/m 8,9 km/h (2 Bft) 98,58 %
04.06.2021 12:00 26,4 C 28,6 C 29,5 C 69 % 1020,8 hPa 0,0 l/m 0,77 h 0,00 h 754 W/m 8,5 km/h (2 Bft) 95,10 %
04.06.2021 13:00 27,3 C 29,0 C 29,1 C 64 % 1020,3 hPa 0,0 l/m 0,77 h 0,00 h 635 W/m 10,0 km/h (2 Bft) 99,15 %
04.06.2021 14:00 27,5 C 29,6 C 25,7 C 62 % 1019,8 hPa 0,0 l/m 0,97 h 0,00 h 600 W/m 9,0 km/h (2 Bft) 97,08 %
04.06.2021 15:00 27,7 C 28,6 C 24,9 C 61 % 1019,2 hPa 0,0 l/m 0,23 h 0,00 h 357 W/m 6,6 km/h (2 Bft) 97,62 %
04.06.2021 16:00 27,6 C 29,4 C 24,9 C 61 % 1018,7 hPa 0,0 l/m 0,40 h 0,00 h 424 W/m 9,2 km/h (2 Bft) 97,86 %
04.06.2021 17:00 27,1 C 27,2 C 24,0 C 62 % 1018,1 hPa 0,0 l/m 0,00 h 0,00 h 234 W/m 8,9 km/h (2 Bft) 97,70 %
04.06.2021 18:00 26,5 C 26,3 C 23,4 C 65 % 1018,4 hPa 0,0 l/m 0,00 h 0,00 h 158 W/m 6,1 km/h (2 Bft) 98,09 %
04.06.2021 19:00 24,6 C 23,2 C 20,8 C 72 % 1018,4 hPa 0,0 l/m 0,00 h 0,17 h 55 W/m 14,4 km/h (3 Bft) 96,45 %
04.06.2021 20:00 20,5 C 19,0 C 16,5 C 88 % 1019,6 hPa 1,6 l/m 0,00 h 0,97 h 6 W/m 14,7 km/h (3 Bft) 98,71 %
04.06.2021 21:00 18,7 C 17,3 C 15,7 C 96 % 1020,1 hPa 3,6 l/m 0,00 h 1,00 h 0 W/m 4,4 km/h (1 Bft) 98,42 %
04.06.2021 22:00 18,5 C 17,2 C 15,7 C 98 % 1019,1 hPa 2,8 l/m 0,00 h 1,00 h 0 W/m 5,0 km/h (1 Bft) 97,44 %
04.06.2021 23:00 18,4 C 17,2 C 15,7 C 98 % 1019,2 hPa 0,0 l/m 0,00 h 0,23 h 0 W/m 2,1 km/h (1 Bft) 96,24 %
05.06.2021 00:00 18,2 C 17,2 C 15,9 C 99 % 1019,4 hPa 0,0 l/m 0,00 h 0,00 h 0 W/m 1,3 km/h (1 Bft) 94,19 %
05.06.2021 01:00 18,0 C 16,8 C 15,6 C 99 % 1019,3 hPa 0,0 l/m 0,00 h 0,00 h 0 W/m 0,2 km/h (0 Bft) 97,58 %
05.06.2021 02:00 17,7 C 16,7 C 15,6 C 99 % 1019,3 hPa 0,0 l/m 0,00 h 0,00 h 0 W/m 2,0 km/h (1 Bft) 98,36 %
05.06.2021 03:00 17,5 C 16,6 C 15,6 C 100 % 1019,2 hPa 0,0 l/m 0,00 h 0,00 h 0 W/m 1,4 km/h (1 Bft) 97,20 %
05.06.2021 04:00 17,1 C 16,1 C 15,6 C 100 % 1019,2 hPa 0,0 l/m 0,00 h 0,00 h 0 W/m 1,8 km/h (1 Bft) 96,98 %
05.06.2021 05:00 17,1 C 16,5 C 15,6 C 100 % 1019,2 hPa 0,0 l/m 0,00 h 0,00 h 8 W/m 3,5 km/h (1 Bft) 95,85 %
05.06.2021 06:00 17,4 C 16,8 C 15,9 C 100 % 1019,0 hPa 0,0 l/m 0,00 h 0,00 h 39 W/m 4,2 km/h (1 Bft) 98,37 %
05.06.2021 07:00 17,6 C 17,3 C 16,1 C 100 % 1019,1 hPa 0,0 l/m 0,00 h 0,00 h 79 W/m 8,5 km/h (2 Bft) 97,87 %
05.06.2021 08:00 17,9 C 17,9 C 16,3 C 99 % 1019,6 hPa 0,0 l/m 0,00 h 0,00 h 91 W/m 5,2 km/h (1 Bft) 97,86 %
05.06.2021 09:00 18,2 C 18,0 C 16,8 C 97 % 1020,1 hPa 0,0 l/m 0,00 h 0,00 h 74 W/m 4,8 km/h (1 Bft) 99,07 %
05.06.2021 10:00 18,6 C 18,6 C 17,5 C 96 % 1020,1 hPa 0,0 l/m 0,00 h 0,00 h 171 W/m 5,1 km/h (1 Bft) 98,07 %
05.06.2021 11:00 19,2 C 19,3 C 18,3 C 95 % 1020,2 hPa 0,0 l/m 0,00 h 0,00 h 218 W/m 8,1 km/h (2 Bft) 95,05 %
05.06.2021 12:00 19,1 C 19,3 C 18,4 C 95 % 1020,5 hPa 0,0 l/m 0,00 h 0,00 h 233 W/m 7,1 km/h (2 Bft) 97,25 %
05.06.2021 13:00 18,6 C 18,2 C 17,3 C 95 % 1020,7 hPa 0,0 l/m 0,00 h 0,00 h 113 W/m 9,7 km/h (2 Bft) 99,72 %
05.06.2021 14:00 18,1 C 17,8 C 16,7 C 96 % 1020,8 hPa 0,0 l/m 0,00 h 0,00 h 92 W/m 9,3 km/h (2 Bft) 98,01 %
05.06.2021 15:00 18,0 C 17,8 C 16,9 C 97 % 1020,8 hPa 0,0 l/m 0,00 h 0,00 h 99 W/m 9,4 km/h (2 Bft) 95,86 %
05.06.2021 16:00 17,7 C 17,0 C 16,1 C 98 % 1020,9 hPa 0,2 l/m 0,00 h 0,30 h 46 W/m 8,7 km/h (2 Bft) 97,72 %
05.06.2021 17:00 17,5 C 17,1 C 16,1 C 99 % 1021,0 hPa 0,0 l/m 0,00 h 0,00 h 60 W/m 7,6 km/h (2 Bft) 96,83 %
05.06.2021 18:00 17,7 C 17,2 C 16,5 C 98 % 1021,2 hPa 0,0 l/m 0,00 h 0,00 h 63 W/m 6,8 km/h (2 Bft) 97,70 %
05.06.2021 19:00 18,2 C 18,1 C 17,3 C 95 % 1021,4 hPa 0,0 l/m 0,00 h 0,00 h 68 W/m 8,1 km/h (2 Bft) 99,65 %
05.06.2021 20:00 18,2 C 17,4 C 16,8 C 94 % 1021,6 hPa 0,0 l/m 0,00 h 0,00 h 22 W/m 6,4 km/h (2 Bft) 97,15 %
05.06.2021 21:00 17,5 C 16,7 C 16,0 C 93 % 1022,0 hPa 0,0 l/m 0,00 h 0,00 h 16 W/m 12,6 km/h (3 Bft) 97,72 %
05.06.2021 22:00 16,6 C 15,9 C 15,1 C 93 % 1022,7 hPa 0,0 l/m 0,00 h 0,00 h 0 W/m 12,0 km/h (2 Bft) 96,80 %
05.06.2021 23:00 16,2 C 15,5 C 14,9 C 94 % 1023,1 hPa 0,0 l/m 0,00 h 0,00 h 0 W/m 12,3 km/h (3 Bft) 95,46 %
06.06.2021 00:00 15,6 C 14,8 C 14,1 C 94 % 1023,4 hPa 0,0 l/m 0,00 h 0,00 h 0 W/m 12,8 km/h (3 Bft) 98,45 %
06.06.2021 01:00 15,1 C 14,4 C 13,8 C 95 % 1023,3 hPa 0,0 l/m 0,00 h 0,00 h 0 W/m 11,2 km/h (2 Bft) 99,64 %
06.06.2021 02:00 14,9 C 14,4 C 13,5 C 95 % 1023,2 hPa 0,0 l/m 0,00 h 0,00 h 0 W/m 9,3 km/h (2 Bft) 96,46 %
06.06.2021 03:00 14,7 C 13,9 C 13,4 C 96 % 1023,3 hPa 0,0 l/m 0,00 h 0,00 h 0 W/m 6,4 km/h (2 Bft) 98,51 %
06.06.2021 04:00 14,4 C 13,7 C 13,1 C 96 % 1023,3 hPa 0,0 l/m 0,00 h 0,00 h 0 W/m 7,4 km/h (2 Bft) 97,79 %
06.06.2021 05:00 14,2 C 13,3 C 12,9 C 98 % 1023,2 hPa 0,0 l/m 0,00 h 0,00 h 0 W/m 7,2 km/h (2 Bft) 94,73 %
06.06.2021 06:00 14,1 C 13,3 C 13,4 C 98 % 1023,2 hPa 0,0 l/m 0,00 h 0,00 h 5 W/m 7,4 km/h (2 Bft) 98,67 %
06.06.2021 07:00 14,2 C 13,7 C 13,4 C 98 % 1023,3 hPa 0,0 l/m 0,00 h 0,00 h 32 W/m 8,7 km/h (2 Bft) 97,65 %
06.06.2021 08:00 14,2 C 14,0 C 13,7 C 98 % 1023,5 hPa 0,0 l/m 0,00 h 0,00 h 49 W/m 9,4 km/h (2 Bft) 96,29 %
06.06.2021 09:00 14,3 C 13,9 C 13,6 C 97 % 1023,7 hPa 0,0 l/m 0,00 h 0,00 h 69 W/m 10,7 km/h (2 Bft) 99,15 %
06.06.2021 10:00 14,5 C 14,4 C 14,0 C 97 % 1023,8 hPa 0,0 l/m 0,00 h 0,00 h 123 W/m 10,6 km/h (2 Bft) 98,08 %
06.06.2021 11:00 15,2 C 15,4 C 14,8 C 96 % 1024,0 hPa 0,0 l/m 0,00 h 0,00 h 164 W/m 8,9 km/h (2 Bft) 95,30 %
06.06.2021 12:00 15,9 C 15,9 C 15,2 C 93 % 1024,2 hPa 0,0 l/m 0,00 h 0,00 h 155 W/m 10,6 km/h (2 Bft) 96,75 %
06.06.2021 13:00 16,5 C 16,7 C 15,6 C 91 % 1024,2 hPa 0,0 l/m 0,00 h 0,00 h 178 W/m 11,6 km/h (2 Bft) 97,94 %
06.06.2021 14:00 17,0 C 17,2 C 15,8 C 90 % 1024,0 hPa 0,0 l/m 0,00 h 0,00 h 191 W/m 11,6 km/h (2 Bft) 99,72 %
06.06.2021 15:00 17,4 C 17,5 C 16,1 C 89 % 1023,9 hPa 0,0 l/m 0,00 h 0,00 h 181 W/m 10,2 km/h (2 Bft) 95,87 %
06.06.2021 16:00 18,2 C 18,6 C 17,0 C 87 % 1023,8 hPa 0,0 l/m 0,00 h 0,00 h 263 W/m 8,9 km/h (2 Bft) 97,08 %
06.06.2021 17:00 18,7 C 18,6 C 16,9 C 86 % 1023,5 hPa 0,0 l/m 0,07 h 0,00 h 191 W/m 10,9 km/h (2 Bft) 99,57 %
06.06.2021 18:00 19,4 C 20,2 C 17,4 C 83 % 1023,2 hPa 0,0 l/m 0,43 h 0,00 h 220 W/m 9,2 km/h (2 Bft) 96,87 %
06.06.2021 19:00 19,2 C 18,3 C 16,5 C 83 % 1022,9 hPa 0,0 l/m 0,00 h 0,00 h 52 W/m 6,2 km/h (2 Bft) 96,44 %
06.06.2021 20:00 18,8 C 18,0 C 16,1 C 83 % 1022,9 hPa 0,0 l/m 0,00 h 0,00 h 29 W/m 7,0 km/h (2 Bft) 99,00 %
06.06.2021 21:00 18,3 C 17,4 C 15,6 C 85 % 1023,3 hPa 0,0 l/m 0,00 h 0,00 h 9 W/m 7,4 km/h (2 Bft) 96,80 %
06.06.2021 22:00 17,8 C 16,8 C 15,1 C 88 % 1023,5 hPa 0,0 l/m 0,00 h 0,00 h 0 W/m 7,3 km/h (2 Bft) 98,43 %
06.06.2021 23:00 17,2 C 16,3 C 14,8 C 90 % 1023,5 hPa 0,0 l/m 0,00 h 0,00 h 0 W/m 7,8 km/h (2 Bft) 95,55 %
Min-Datum _ 31.05.21 31.05.21 31.05.21 02.06.21 02.06.21 - - - - 31.05.21 05.06.21
_ Min-Zeit 06:24 05:12 05:36 15:44 18:36 - - - - 00:00 00:02
Minimum _ 9,9 C 8,9 C 7,3 C 33 % 1013,5 hPa - - - - 0,0 km/h (0 Bft) 11,76 %
Max-Datum _ 02.06.21 02.06.21 02.06.21 04.06.21 31.05.21 03.06.21 31.05.21 03.06.21 03.06.21 03.06.21 31.05.21
_ Max-Zeit 17:26 17:24 12:58 07:28 00:00 20:36 12:08 08:44 14:22 11:58 00:16
Maximum _ 30,9 C 36,7 C 38,4 C 100 % 1024,4 hPa 6,0 l/m 0,07 h 0,03 h 1181 W/m 35,4 km/h
S (5 Bft)
100,00 %
Durchschnitt _ 20,0 C 20,4 C 18,4 C 76 % 1019,4 hPa #15,6 l/m #50:12 h #5:02 h 335 W/m 7,2 km/h (2 Bft) 97,48 %
© 2021 W. Hausmann